sensor_id;sensor_type;location;lat;lon;timestamp;pressure;altitude;pressure_sealevel;temperature;humidity
56658;BME280;42530;52.240;19.354;2022-11-20T00:00:54;53287.97;;;-144.69;52.97
56658;BME280;42530;52.240;19.354;2022-11-20T00:03:20;53296.28;;;-144.69;52.90
56658;BME280;42530;52.240;19.354;2022-11-20T00:05:46;53294.22;;;-144.69;52.65
56658;BME280;42530;52.240;19.354;2022-11-20T00:08:12;53244.28;;;-144.69;52.81
56658;BME280;42530;52.240;19.354;2022-11-20T00:10:38;53290.06;;;-144.69;52.49
56658;BME280;42530;52.240;19.354;2022-11-20T00:13:04;53265.09;;;-144.69;52.43
56658;BME280;42530;52.240;19.354;2022-11-20T00:15:30;53263.00;;;-144.69;51.86
56658;BME280;42530;52.240;19.354;2022-11-20T00:17:56;53279.66;;;-144.69;52.15
56658;BME280;42530;52.240;19.354;2022-11-20T00:20:21;53294.22;;;-144.69;51.40
56658;BME280;42530;52.240;19.354;2022-11-20T00:22:47;53252.59;;;-144.69;51.76
56658;BME280;42530;52.240;19.354;2022-11-20T00:25:13;53258.84;;;-144.69;51.72
56658;BME280;42530;52.240;19.354;2022-11-20T00:27:38;53269.25;;;-144.69;51.41
56658;BME280;42530;52.240;19.354;2022-11-20T00:30:05;53260.94;;;-144.69;51.56
56658;BME280;42530;52.240;19.354;2022-11-20T00:32:31;53248.44;;;-144.69;51.61
56658;BME280;42530;52.240;19.354;2022-11-20T00:34:57;53260.94;;;-144.69;52.00
56658;BME280;42530;52.240;19.354;2022-11-20T00:37:22;53277.56;;;-144.69;51.82
56658;BME280;42530;52.240;19.354;2022-11-20T00:39:48;53269.25;;;-144.69;51.87
56658;BME280;42530;52.240;19.354;2022-11-20T00:42:13;53302.53;;;-144.69;51.71
56658;BME280;42530;52.240;19.354;2022-11-20T00:44:39;53260.94;;;-144.69;51.80
56658;BME280;42530;52.240;19.354;2022-11-20T00:47:05;53263.00;;;-144.69;51.58
56658;BME280;42530;52.240;19.354;2022-11-20T00:49:30;53290.06;;;-144.69;51.38
56658;BME280;42530;52.240;19.354;2022-11-20T00:51:56;53235.97;;;-144.69;51.22
56658;BME280;42530;52.240;19.354;2022-11-20T00:54:22;53215.16;;;-144.69;51.20
56658;BME280;42530;52.240;19.354;2022-11-20T00:56:47;53279.66;;;-144.69;51.54
56658;BME280;42530;52.240;19.354;2022-11-20T00:59:13;53256.75;;;-144.69;51.33
56658;BME280;42530;52.240;19.354;2022-11-20T01:01:38;53244.28;;;-144.69;51.27
56658;BME280;42530;52.240;19.354;2022-11-20T01:04:04;53254.69;;;-144.69;51.33
56658;BME280;42530;52.240;19.354;2022-11-20T01:06:35;53265.09;;;-144.69;51.56
56658;BME280;42530;52.240;19.354;2022-11-20T01:09:04;53302.53;;;-144.69;51.51
56658;BME280;42530;52.240;19.354;2022-11-20T01:11:32;53265.09;;;-144.69;51.34
56658;BME280;42530;52.240;19.354;2022-11-20T01:13:59;53265.09;;;-144.69;51.47
56658;BME280;42530;52.240;19.354;2022-11-20T01:16:31;53225.56;;;-144.69;51.74
56658;BME280;42530;52.240;19.354;2022-11-20T01:18:59;53267.16;;;-144.69;51.70
56658;BME280;42530;52.240;19.354;2022-11-20T01:21:30;53244.28;;;-144.69;52.27
56658;BME280;42530;52.240;19.354;2022-11-20T01:23:56;53260.94;;;-144.69;52.95
56658;BME280;42530;52.240;19.354;2022-11-20T01:26:25;53250.53;;;-144.69;52.78
56658;BME280;42530;52.240;19.354;2022-11-20T01:28:51;53263.00;;;-144.69;53.09
56658;BME280;42530;52.240;19.354;2022-11-20T01:31:32;53265.09;;;-144.69;53.10
56658;BME280;42530;52.240;19.354;2022-11-20T01:34:00;53302.53;;;-144.69;53.34
56658;BME280;42530;52.240;19.354;2022-11-20T01:36:29;53235.97;;;-144.69;53.87
56658;BME280;42530;52.240;19.354;2022-11-20T01:39:00;53248.44;;;-144.69;53.71
56658;BME280;42530;52.240;19.354;2022-11-20T01:41:28;53260.94;;;-144.69;53.28
56658;BME280;42530;52.240;19.354;2022-11-20T01:44:16;53260.94;;;-144.69;53.15
56658;BME280;42530;52.240;19.354;2022-11-20T01:46:55;53258.84;;;-144.69;53.09
56658;BME280;42530;52.240;19.354;2022-11-20T01:49:34;53273.41;;;-144.69;52.34
56658;BME280;42530;52.240;19.354;2022-11-20T01:52:13;53252.59;;;-144.69;52.12
56658;BME280;42530;52.240;19.354;2022-11-20T01:54:56;53256.75;;;-144.69;52.41
56658;BME280;42530;52.240;19.354;2022-11-20T01:57:25;53271.31;;;-144.69;53.33
56658;BME280;42530;52.240;19.354;2022-11-20T02:00:07;53263.00;;;-144.69;54.50
56658;BME280;42530;52.240;19.354;2022-11-20T02:02:34;53273.41;;;-144.69;55.16
56658;BME280;42530;52.240;19.354;2022-11-20T02:05:04;53248.44;;;-144.69;56.02
56658;BME280;42530;52.240;19.354;2022-11-20T02:07:31;53279.66;;;-144.69;56.75
56658;BME280;42530;52.240;19.354;2022-11-20T02:09:57;53250.53;;;-144.69;57.87
56658;BME280;42530;52.240;19.354;2022-11-20T02:12:22;53260.94;;;-144.69;57.50
56658;BME280;42530;52.240;19.354;2022-11-20T02:15:07;53248.44;;;-144.69;58.26
56658;BME280;42530;52.240;19.354;2022-11-20T02:17:33;53271.31;;;-144.69;58.33
56658;BME280;42530;52.240;19.354;2022-11-20T02:19:58;53227.63;;;-144.69;57.98
56658;BME280;42530;52.240;19.354;2022-11-20T02:22:31;53263.00;;;-144.69;57.37
56658;BME280;42530;52.240;19.354;2022-11-20T02:25:02;53248.44;;;-144.69;56.98
56658;BME280;42530;52.240;19.354;2022-11-20T02:27:29;53248.44;;;-144.69;56.42
56658;BME280;42530;52.240;19.354;2022-11-20T02:30:01;53250.53;;;-144.69;56.39
56658;BME280;42530;52.240;19.354;2022-11-20T02:32:30;53223.47;;;-144.69;56.15
56658;BME280;42530;52.240;19.354;2022-11-20T02:34:56;53273.41;;;-144.69;55.08
56658;BME280;42530;52.240;19.354;2022-11-20T02:37:22;53300.47;;;-144.69;54.67
56658;BME280;42530;52.240;19.354;2022-11-20T02:39:51;53265.09;;;-144.69;54.04
56658;BME280;42530;52.240;19.354;2022-11-20T02:42:17;53308.78;;;-144.69;53.57
56658;BME280;42530;52.240;19.354;2022-11-20T02:44:43;53277.56;;;-144.69;53.33
56658;BME280;42530;52.240;19.354;2022-11-20T02:47:08;53302.53;;;-144.69;52.87
56658;BME280;42530;52.240;19.354;2022-11-20T02:49:34;53248.44;;;-144.69;52.32
56658;BME280;42530;52.240;19.354;2022-11-20T02:52:00;53256.75;;;-144.69;52.23
56658;BME280;42530;52.240;19.354;2022-11-20T02:54:26;53290.06;;;-144.69;52.15
56658;BME280;42530;52.240;19.354;2022-11-20T02:56:51;53281.72;;;-144.69;52.07
56658;BME280;42530;52.240;19.354;2022-11-20T02:59:17;53273.41;;;-144.69;51.81
56658;BME280;42530;52.240;19.354;2022-11-20T03:01:43;53281.72;;;-144.69;51.92
56658;BME280;42530;52.240;19.354;2022-11-20T03:04:08;53290.06;;;-144.69;52.12
56658;BME280;42530;52.240;19.354;2022-11-20T03:06:34;53242.19;;;-144.69;51.27
56658;BME280;42530;52.240;19.354;2022-11-20T03:08:59;53269.25;;;-144.69;51.60
56658;BME280;42530;52.240;19.354;2022-11-20T03:11:25;53254.69;;;-144.69;51.09
56658;BME280;42530;52.240;19.354;2022-11-20T03:13:50;53265.09;;;-144.69;51.07
56658;BME280;42530;52.240;19.354;2022-11-20T03:16:19;53231.81;;;-144.69;51.17
56658;BME280;42530;52.240;19.354;2022-11-20T03:18:45;53213.06;;;-144.69;51.11
56658;BME280;42530;52.240;19.354;2022-11-20T03:21:12;53296.28;;;-144.69;50.63
56658;BME280;42530;52.240;19.354;2022-11-20T03:23:38;53238.03;;;-144.69;50.51
56658;BME280;42530;52.240;19.354;2022-11-20T03:26:12;53279.66;;;-144.69;50.72
56658;BME280;42530;52.240;19.354;2022-11-20T03:28:39;53277.56;;;-144.69;50.63
56658;BME280;42530;52.240;19.354;2022-11-20T03:31:09;53260.94;;;-144.69;50.27
56658;BME280;42530;52.240;19.354;2022-11-20T03:33:35;53310.84;;;-144.69;50.69
56658;BME280;42530;52.240;19.354;2022-11-20T03:36:03;53223.47;;;-144.69;50.86
56658;BME280;42530;52.240;19.354;2022-11-20T03:38:30;53269.25;;;-144.69;50.32
56658;BME280;42530;52.240;19.354;2022-11-20T03:41:18;53294.22;;;-144.69;50.70
56658;BME280;42530;52.240;19.354;2022-11-20T03:43:51;53258.84;;;-144.69;51.01
56658;BME280;42530;52.240;19.354;2022-11-20T03:46:17;53273.41;;;-144.69;50.70
56658;BME280;42530;52.240;19.354;2022-11-20T03:48:43;53229.72;;;-144.69;50.75
56658;BME280;42530;52.240;19.354;2022-11-20T03:51:23;53281.72;;;-144.69;50.68
56658;BME280;42530;52.240;19.354;2022-11-20T03:53:49;53240.13;;;-144.69;50.82
56658;BME280;42530;52.240;19.354;2022-11-20T03:56:17;53285.91;;;-144.69;50.72
56658;BME280;42530;52.240;19.354;2022-11-20T03:58:43;53271.31;;;-144.69;50.57
56658;BME280;42530;52.240;19.354;2022-11-20T04:01:15;53271.31;;;-144.69;50.75
56658;BME280;42530;52.240;19.354;2022-11-20T04:03:42;53260.94;;;-144.69;50.77
56658;BME280;42530;52.240;19.354;2022-11-20T04:06:10;53279.66;;;-144.69;50.72
56658;BME280;42530;52.240;19.354;2022-11-20T04:08:36;53260.94;;;-144.69;50.73
56658;BME280;42530;52.240;19.354;2022-11-20T04:11:13;53240.13;;;-144.69;50.77
56658;BME280;42530;52.240;19.354;2022-11-20T04:13:40;53265.09;;;-144.69;50.66
56658;BME280;42530;52.240;19.354;2022-11-20T04:16:06;53248.44;;;-144.69;51.29
56658;BME280;42530;52.240;19.354;2022-11-20T04:18:32;53300.47;;;-144.69;51.16
56658;BME280;42530;52.240;19.354;2022-11-20T04:20:58;53290.06;;;-144.69;51.36
56658;BME280;42530;52.240;19.354;2022-11-20T04:23:25;53285.91;;;-144.69;51.31
56658;BME280;42530;52.240;19.354;2022-11-20T04:25:50;53227.63;;;-144.69;51.46
56658;BME280;42530;52.240;19.354;2022-11-20T04:28:16;53287.97;;;-144.69;51.34
56658;BME280;42530;52.240;19.354;2022-11-20T04:30:42;53244.28;;;-144.69;51.29
56658;BME280;42530;52.240;19.354;2022-11-20T04:33:07;53248.44;;;-144.69;51.15
56658;BME280;42530;52.240;19.354;2022-11-20T04:35:37;53310.84;;;-144.69;51.41
56658;BME280;42530;52.240;19.354;2022-11-20T04:38:03;53281.72;;;-144.69;51.17
56658;BME280;42530;52.240;19.354;2022-11-20T04:40:29;53267.16;;;-144.69;51.50
56658;BME280;42530;52.240;19.354;2022-11-20T04:42:55;53290.06;;;-144.69;51.26
56658;BME280;42530;52.240;19.354;2022-11-20T04:45:22;53231.81;;;-144.69;51.36
56658;BME280;42530;52.240;19.354;2022-11-20T04:47:48;53240.13;;;-144.69;51.16
56658;BME280;42530;52.240;19.354;2022-11-20T04:50:13;53281.72;;;-144.69;51.34
56658;BME280;42530;52.240;19.354;2022-11-20T04:52:39;53271.31;;;-144.69;51.32
56658;BME280;42530;52.240;19.354;2022-11-20T04:55:05;53265.09;;;-144.69;51.20
56658;BME280;42530;52.240;19.354;2022-11-20T04:57:31;53273.41;;;-144.69;51.38
56658;BME280;42530;52.240;19.354;2022-11-20T04:59:56;53271.31;;;-144.69;51.42
56658;BME280;42530;52.240;19.354;2022-11-20T05:02:21;53263.00;;;-144.69;51.64
56658;BME280;42530;52.240;19.354;2022-11-20T05:04:47;53267.16;;;-144.69;51.25
56658;BME280;42530;52.240;19.354;2022-11-20T05:07:13;53231.81;;;-144.69;51.59
56658;BME280;42530;52.240;19.354;2022-11-20T05:09:38;53238.03;;;-144.69;51.59
56658;BME280;42530;52.240;19.354;2022-11-20T05:12:04;53273.41;;;-144.69;51.70
56658;BME280;42530;52.240;19.354;2022-11-20T05:14:29;53300.47;;;-144.69;52.02
56658;BME280;42530;52.240;19.354;2022-11-20T05:16:55;53300.47;;;-144.69;51.58
56658;BME280;42530;52.240;19.354;2022-11-20T05:19:20;53279.66;;;-144.69;51.41
56658;BME280;42530;52.240;19.354;2022-11-20T05:21:46;53294.22;;;-144.69;51.68
56658;BME280;42530;52.240;19.354;2022-11-20T05:24:12;53252.59;;;-144.69;51.83
56658;BME280;42530;52.240;19.354;2022-11-20T05:26:37;53269.25;;;-144.69;51.66
56658;BME280;42530;52.240;19.354;2022-11-20T05:29:03;53271.31;;;-144.69;51.63
56658;BME280;42530;52.240;19.354;2022-11-20T05:31:29;53290.06;;;-144.69;51.70
56658;BME280;42530;52.240;19.354;2022-11-20T05:33:55;53271.31;;;-144.69;51.61
56658;BME280;42530;52.240;19.354;2022-11-20T05:36:21;53233.88;;;-144.69;51.66
56658;BME280;42530;52.240;19.354;2022-11-20T05:38:47;53227.63;;;-144.69;51.79
56658;BME280;42530;52.240;19.354;2022-11-20T05:41:15;53252.59;;;-144.69;51.54
56658;BME280;42530;52.240;19.354;2022-11-20T05:43:43;53248.44;;;-144.69;51.95
56658;BME280;42530;52.240;19.354;2022-11-20T05:46:11;53265.09;;;-144.69;51.48
56658;BME280;42530;52.240;19.354;2022-11-20T05:48:38;53290.06;;;-144.69;51.43
56658;BME280;42530;52.240;19.354;2022-11-20T05:51:05;53225.56;;;-144.69;51.54
56658;BME280;42530;52.240;19.354;2022-11-20T05:53:35;53225.56;;;-144.69;51.20
56658;BME280;42530;52.240;19.354;2022-11-20T05:56:06;53244.28;;;-144.69;51.80
56658;BME280;42530;52.240;19.354;2022-11-20T05:58:33;53267.16;;;-144.69;51.88
56658;BME280;42530;52.240;19.354;2022-11-20T06:01:11;53285.91;;;-144.69;51.43
56658;BME280;42530;52.240;19.354;2022-11-20T06:03:38;53290.06;;;-144.69;51.58
56658;BME280;42530;52.240;19.354;2022-11-20T06:06:04;53225.56;;;-144.69;51.79
56658;BME280;42530;52.240;19.354;2022-11-20T06:08:31;53248.44;;;-144.69;51.79
56658;BME280;42530;52.240;19.354;2022-11-20T06:10:57;53240.13;;;-144.69;51.63
56658;BME280;42530;52.240;19.354;2022-11-20T06:13:22;53273.41;;;-144.69;51.68
56658;BME280;42530;52.240;19.354;2022-11-20T06:15:52;53252.59;;;-144.69;51.91
56658;BME280;42530;52.240;19.354;2022-11-20T06:18:18;53254.69;;;-144.69;52.20
56658;BME280;42530;52.240;19.354;2022-11-20T06:20:44;53271.31;;;-144.69;51.82
56658;BME280;42530;52.240;19.354;2022-11-20T06:23:09;53269.25;;;-144.69;51.79
56658;BME280;42530;52.240;19.354;2022-11-20T06:25:41;53238.03;;;-144.69;51.59
56658;BME280;42530;52.240;19.354;2022-11-20T06:28:08;53240.13;;;-144.69;51.53
56658;BME280;42530;52.240;19.354;2022-11-20T06:30:35;53265.09;;;-144.69;51.41
56658;BME280;42530;52.240;19.354;2022-11-20T06:33:01;53256.75;;;-144.69;51.27
56658;BME280;42530;52.240;19.354;2022-11-20T06:35:27;53248.44;;;-144.69;51.08
56658;BME280;42530;52.240;19.354;2022-11-20T06:37:52;53273.41;;;-144.69;51.06
56658;BME280;42530;52.240;19.354;2022-11-20T06:40:18;53260.94;;;-144.69;51.06
56658;BME280;42530;52.240;19.354;2022-11-20T06:42:43;53252.59;;;-144.69;51.45
56658;BME280;42530;52.240;19.354;2022-11-20T06:45:09;53260.94;;;-144.69;51.76
56658;BME280;42530;52.240;19.354;2022-11-20T06:47:34;53248.44;;;-144.69;51.54
56658;BME280;42530;52.240;19.354;2022-11-20T06:50:00;53252.59;;;-144.69;51.54
56658;BME280;42530;52.240;19.354;2022-11-20T06:52:25;53271.31;;;-144.69;51.05
56658;BME280;42530;52.240;19.354;2022-11-20T06:54:51;53277.56;;;-144.69;51.29
56658;BME280;42530;52.240;19.354;2022-11-20T06:57:16;53260.94;;;-144.69;51.41
56658;BME280;42530;52.240;19.354;2022-11-20T06:59:42;53223.47;;;-144.69;51.09
56658;BME280;42530;52.240;19.354;2022-11-20T07:02:11;53267.16;;;-144.69;50.95
56658;BME280;42530;52.240;19.354;2022-11-20T07:04:38;53269.25;;;-144.69;50.70
56658;BME280;42530;52.240;19.354;2022-11-20T07:07:04;53250.53;;;-144.69;50.84
56658;BME280;42530;52.240;19.354;2022-11-20T07:09:30;53277.56;;;-144.69;51.02
56658;BME280;42530;52.240;19.354;2022-11-20T07:11:55;53235.97;;;-144.69;50.63
56658;BME280;42530;52.240;19.354;2022-11-20T07:14:21;53256.75;;;-144.69;50.86
56658;BME280;42530;52.240;19.354;2022-11-20T07:16:46;53256.75;;;-144.69;50.19
56658;BME280;42530;52.240;19.354;2022-11-20T07:19:12;53273.41;;;-144.69;50.47
56658;BME280;42530;52.240;19.354;2022-11-20T07:21:37;53256.75;;;-144.69;50.84
56658;BME280;42530;52.240;19.354;2022-11-20T07:24:03;53271.31;;;-144.69;50.02
56658;BME280;42530;52.240;19.354;2022-11-20T07:26:28;53273.41;;;-144.69;50.38
56658;BME280;42530;52.240;19.354;2022-11-20T07:28:54;53248.44;;;-144.69;50.50
56658;BME280;42530;52.240;19.354;2022-11-20T07:31:19;53281.72;;;-144.69;51.07
56658;BME280;42530;52.240;19.354;2022-11-20T07:33:45;53298.38;;;-144.69;50.70
56658;BME280;42530;52.240;19.354;2022-11-20T07:36:11;53194.34;;;-144.69;50.11
56658;BME280;42530;52.240;19.354;2022-11-20T07:38:37;53238.03;;;-144.69;50.31
56658;BME280;42530;52.240;19.354;2022-11-20T07:41:03;53273.41;;;-144.69;50.03
56658;BME280;42530;52.240;19.354;2022-11-20T07:43:28;53281.72;;;-144.69;50.48
56658;BME280;42530;52.240;19.354;2022-11-20T07:45:58;53271.31;;;-144.69;50.63
56658;BME280;42530;52.240;19.354;2022-11-20T07:48:24;53283.81;;;-144.69;50.82
56658;BME280;42530;52.240;19.354;2022-11-20T07:50:54;53271.31;;;-144.69;50.85
56658;BME280;42530;52.240;19.354;2022-11-20T07:53:20;53258.84;;;-144.69;50.57
56658;BME280;42530;52.240;19.354;2022-11-20T07:55:47;53256.75;;;-144.69;50.42
56658;BME280;42530;52.240;19.354;2022-11-20T07:58:13;53269.25;;;-144.69;50.45
56658;BME280;42530;52.240;19.354;2022-11-20T08:00:40;53244.28;;;-144.69;49.88
56658;BME280;42530;52.240;19.354;2022-11-20T08:03:06;53254.69;;;-144.69;49.63
56658;BME280;42530;52.240;19.354;2022-11-20T08:05:32;53271.31;;;-144.69;49.36
56658;BME280;42530;52.240;19.354;2022-11-20T08:07:58;53290.06;;;-144.69;49.06
56658;BME280;42530;52.240;19.354;2022-11-20T08:10:48;53283.81;;;-144.69;48.84
56658;BME280;42530;52.240;19.354;2022-11-20T08:13:14;53317.09;;;-144.69;48.70
56658;BME280;42530;52.240;19.354;2022-11-20T08:15:59;53252.59;;;-144.69;49.02
56658;BME280;42530;52.240;19.354;2022-11-20T08:18:24;53271.31;;;-144.69;48.58
56658;BME280;42530;52.240;19.354;2022-11-20T08:20:50;53298.38;;;-144.69;49.00
56658;BME280;42530;52.240;19.354;2022-11-20T08:23:22;53290.06;;;-144.69;48.76
56658;BME280;42530;52.240;19.354;2022-11-20T08:25:49;53337.91;;;-144.69;48.27
56658;BME280;42530;52.240;19.354;2022-11-20T08:28:15;53290.06;;;-144.69;47.70
56658;BME280;42530;52.240;19.354;2022-11-20T08:30:40;53235.97;;;-144.69;47.11
56658;BME280;42530;52.240;19.354;2022-11-20T08:33:08;53287.97;;;-144.69;46.78
56658;BME280;42530;52.240;19.354;2022-11-20T08:35:35;53277.56;;;-144.69;45.22
56658;BME280;42530;52.240;19.354;2022-11-20T08:38:02;53300.47;;;-144.69;43.54
56658;BME280;42530;52.240;19.354;2022-11-20T08:40:28;53302.53;;;-144.69;41.43
56658;BME280;42530;52.240;19.354;2022-11-20T08:42:54;53310.84;;;-144.69;40.86
56658;BME280;42530;52.240;19.354;2022-11-20T08:45:19;53265.09;;;-144.69;39.72
56658;BME280;42530;52.240;19.354;2022-11-20T08:47:45;53308.78;;;-144.69;38.46
56658;BME280;42530;52.240;19.354;2022-11-20T08:50:13;53304.63;;;-144.69;37.81
56658;BME280;42530;52.240;19.354;2022-11-20T08:52:39;53319.19;;;-144.69;36.97
56658;BME280;42530;52.240;19.354;2022-11-20T08:55:05;53306.69;;;-144.69;36.60
56658;BME280;42530;52.240;19.354;2022-11-20T08:57:32;53331.66;;;-144.69;36.17
56658;BME280;42530;52.240;19.354;2022-11-20T08:59:58;53321.25;;;-144.69;35.71
56658;BME280;42530;52.240;19.354;2022-11-20T09:02:24;53310.84;;;-144.69;35.84
56658;BME280;42530;52.240;19.354;2022-11-20T09:04:50;53323.34;;;-144.69;34.55
56658;BME280;42530;52.240;19.354;2022-11-20T09:07:16;53290.06;;;-144.69;34.87
56658;BME280;42530;52.240;19.354;2022-11-20T09:09:41;53267.16;;;-144.69;35.59
56658;BME280;42530;52.240;19.354;2022-11-20T09:12:07;53285.91;;;-144.69;34.29
56658;BME280;42530;52.240;19.354;2022-11-20T09:14:32;53267.16;;;-144.69;33.30
56658;BME280;42530;52.240;19.354;2022-11-20T09:16:59;53306.69;;;-144.69;33.14
56658;BME280;42530;52.240;19.354;2022-11-20T09:19:24;53319.19;;;-144.69;32.78
56658;BME280;42530;52.240;19.354;2022-11-20T09:21:50;53260.94;;;-144.69;33.43
56658;BME280;42530;52.240;19.354;2022-11-20T09:24:16;53310.84;;;-144.69;33.95
56658;BME280;42530;52.240;19.354;2022-11-20T09:26:42;53321.25;;;-144.69;33.04
56658;BME280;42530;52.240;19.354;2022-11-20T09:29:08;53252.59;;;-144.69;32.80
56658;BME280;42530;52.240;19.354;2022-11-20T09:31:33;53267.16;;;-144.69;33.30
56658;BME280;42530;52.240;19.354;2022-11-20T09:33:59;53285.91;;;-144.69;33.66
56658;BME280;42530;52.240;19.354;2022-11-20T09:36:24;53263.00;;;-144.69;32.72
56658;BME280;42530;52.240;19.354;2022-11-20T09:38:50;53273.41;;;-144.69;32.38
56658;BME280;42530;52.240;19.354;2022-11-20T09:47:11;53287.97;;;-144.69;32.00
56658;BME280;42530;52.240;19.354;2022-11-20T09:52:57;53258.84;;;-144.69;32.28
56658;BME280;42530;52.240;19.354;2022-11-20T09:55:17;53250.53;;;-144.69;31.38
56658;BME280;42530;52.240;19.354;2022-11-20T09:57:46;53269.25;;;-144.69;30.85
56658;BME280;42530;52.240;19.354;2022-11-20T10:00:14;53252.59;;;-144.69;29.86
56658;BME280;42530;52.240;19.354;2022-11-20T10:03:13;53277.56;;;-144.69;29.52
56658;BME280;42530;52.240;19.354;2022-11-20T10:05:44;53306.69;;;-144.69;30.02
56658;BME280;42530;52.240;19.354;2022-11-20T10:16:57;53283.81;;;-144.69;28.02
56658;BME280;42530;52.240;19.354;2022-11-20T10:22:27;53240.13;;;-144.69;28.13
56658;BME280;42530;52.240;19.354;2022-11-20T10:25:03;53277.56;;;-144.69;29.64
56658;BME280;42530;52.240;19.354;2022-11-20T10:30:11;53281.72;;;-144.69;26.92
56658;BME280;42530;52.240;19.354;2022-11-20T10:32:43;53277.56;;;-144.69;28.32
56658;BME280;42530;52.240;19.354;2022-11-20T10:38:23;53290.06;;;-144.69;26.95
56658;BME280;42530;52.240;19.354;2022-11-20T10:40:57;53238.03;;;-144.69;26.22
56658;BME280;42530;52.240;19.354;2022-11-20T10:43:44;53273.41;;;-144.69;26.04
56658;BME280;42530;52.240;19.354;2022-11-20T10:46:16;53252.59;;;-144.69;25.69
56658;BME280;42530;52.240;19.354;2022-11-20T10:48:44;53256.75;;;-144.69;27.06
56658;BME280;42530;52.240;19.354;2022-11-20T10:51:37;53273.41;;;-144.69;29.14
56658;BME280;42530;52.240;19.354;2022-11-20T10:59:38;53204.75;;;-144.69;30.28
56658;BME280;42530;52.240;19.354;2022-11-20T11:02:21;53227.63;;;-144.69;32.26
56658;BME280;42530;52.240;19.354;2022-11-20T11:04:50;53277.56;;;-144.69;32.37
56658;BME280;42530;52.240;19.354;2022-11-20T11:07:20;53283.81;;;-144.69;31.05
56658;BME280;42530;52.240;19.354;2022-11-20T11:09:50;53256.75;;;-144.69;29.46
56658;BME280;42530;52.240;19.354;2022-11-20T11:12:17;53279.66;;;-144.69;29.13
56658;BME280;42530;52.240;19.354;2022-11-20T11:14:48;53231.81;;;-144.69;30.04
56658;BME280;42530;52.240;19.354;2022-11-20T11:20:19;53223.47;;;-144.69;31.94
56658;BME280;42530;52.240;19.354;2022-11-20T11:22:54;53240.13;;;-144.69;32.92
56658;BME280;42530;52.240;19.354;2022-11-20T11:25:27;53235.97;;;-144.69;33.09
56658;BME280;42530;52.240;19.354;2022-11-20T11:27:56;53265.09;;;-144.69;33.51
56658;BME280;42530;52.240;19.354;2022-11-20T11:30:24;53231.81;;;-144.69;33.66
56658;BME280;42530;52.240;19.354;2022-11-20T11:32:50;53265.09;;;-144.69;33.51
56658;BME280;42530;52.240;19.354;2022-11-20T11:35:27;53252.59;;;-144.69;33.71
56658;BME280;42530;52.240;19.354;2022-11-20T11:38:02;53208.91;;;-144.69;33.58
56658;BME280;42530;52.240;19.354;2022-11-20T11:40:31;53223.47;;;-144.69;33.44
56658;BME280;42530;52.240;19.354;2022-11-20T11:43:01;53202.66;;;-144.69;33.83
56658;BME280;42530;52.240;19.354;2022-11-20T11:45:28;53219.31;;;-144.69;33.65
56658;BME280;42530;52.240;19.354;2022-11-20T11:47:56;53267.16;;;-144.69;35.27
56658;BME280;42530;52.240;19.354;2022-11-20T11:50:27;53260.94;;;-144.69;35.10
56658;BME280;42530;52.240;19.354;2022-11-20T11:52:58;53229.72;;;-144.69;35.17
56658;BME280;42530;52.240;19.354;2022-11-20T11:58:31;53233.88;;;-144.69;34.83
56658;BME280;42530;52.240;19.354;2022-11-20T12:01:30;53267.16;;;-144.69;34.59
56658;BME280;42530;52.240;19.354;2022-11-20T12:07:09;53235.97;;;-144.69;35.33
56658;BME280;42530;52.240;19.354;2022-11-20T12:09:42;53227.63;;;-144.69;35.20
56658;BME280;42530;52.240;19.354;2022-11-20T12:12:36;53190.19;;;-144.69;35.22
56658;BME280;42530;52.240;19.354;2022-11-20T12:15:06;53221.41;;;-144.69;35.43
56658;BME280;42530;52.240;19.354;2022-11-20T12:17:35;53244.28;;;-144.69;35.37
56658;BME280;42530;52.240;19.354;2022-11-20T12:20:00;53198.50;;;-144.69;35.79
56658;BME280;42530;52.240;19.354;2022-11-20T12:22:39;53208.91;;;-144.69;35.56
56658;BME280;42530;52.240;19.354;2022-11-20T12:25:14;53208.91;;;-144.69;35.35
56658;BME280;42530;52.240;19.354;2022-11-20T12:30:54;53246.38;;;-144.69;35.73
56658;BME280;42530;52.240;19.354;2022-11-20T12:34:01;53202.66;;;-144.69;36.09
56658;BME280;42530;52.240;19.354;2022-11-20T12:41:48;53235.97;;;-144.69;37.48
56658;BME280;42530;52.240;19.354;2022-11-20T12:48:07;53227.63;;;-144.69;38.06
56658;BME280;42530;52.240;19.354;2022-11-20T12:53:33;53231.81;;;-144.69;38.40
56658;BME280;42530;52.240;19.354;2022-11-20T13:01:40;53221.41;;;-144.69;38.66
56658;BME280;42530;52.240;19.354;2022-11-20T13:06:44;53211.00;;;-144.69;38.72
56658;BME280;42530;52.240;19.354;2022-11-20T13:09:13;53227.63;;;-144.69;39.17
56658;BME280;42530;52.240;19.354;2022-11-20T13:11:51;53221.41;;;-144.69;39.02
56658;BME280;42530;52.240;19.354;2022-11-20T13:19:41;53213.06;;;-144.69;38.73
56658;BME280;42530;52.240;19.354;2022-11-20T13:22:08;53227.63;;;-144.69;38.77
56658;BME280;42530;52.240;19.354;2022-11-20T13:24:34;53227.63;;;-144.69;39.43
56658;BME280;42530;52.240;19.354;2022-11-20T13:29:35;53196.44;;;-144.69;39.94
56658;BME280;42530;52.240;19.354;2022-11-20T13:32:04;53231.81;;;-144.69;39.78
56658;BME280;42530;52.240;19.354;2022-11-20T13:34:30;53227.63;;;-144.69;40.03
56658;BME280;42530;52.240;19.354;2022-11-20T13:36:57;53244.28;;;-144.69;39.95
56658;BME280;42530;52.240;19.354;2022-11-20T13:39:33;53211.00;;;-144.69;40.08
56658;BME280;42530;52.240;19.354;2022-11-20T13:42:20;53265.09;;;-144.69;39.94
56658;BME280;42530;52.240;19.354;2022-11-20T13:44:54;53229.72;;;-144.69;40.39
56658;BME280;42530;52.240;19.354;2022-11-20T13:47:23;53211.00;;;-144.69;40.63
56658;BME280;42530;52.240;19.354;2022-11-20T13:49:51;53200.59;;;-144.69;40.84